sensor_id;sensor_type;location;lat;lon;timestamp;P1;durP1;ratioP1;P2;durP2;ratioP2
73747;SDS011;62056;52.130;5.428;2022-12-19T00:01:31;25.00;;;12.68;;
73747;SDS011;62056;52.130;5.428;2022-12-19T00:04:01;16.95;;;9.90;;
73747;SDS011;62056;52.130;5.428;2022-12-19T00:06:34;25.50;;;12.10;;
73747;SDS011;62056;52.130;5.428;2022-12-19T00:09:01;23.60;;;11.55;;
73747;SDS011;62056;52.130;5.428;2022-12-19T00:11:29;27.13;;;13.23;;
73747;SDS011;62056;52.130;5.428;2022-12-19T00:13:56;23.13;;;11.32;;
73747;SDS011;62056;52.130;5.428;2022-12-19T00:16:24;28.05;;;11.52;;
73747;SDS011;62056;52.130;5.428;2022-12-19T00:18:53;31.20;;;15.43;;
73747;SDS011;62056;52.130;5.428;2022-12-19T00:21:22;36.33;;;15.25;;
73747;SDS011;62056;52.130;5.428;2022-12-19T00:23:50;19.60;;;10.48;;
73747;SDS011;62056;52.130;5.428;2022-12-19T00:26:18;23.05;;;11.75;;
73747;SDS011;62056;52.130;5.428;2022-12-19T00:28:50;42.00;;;17.00;;
73747;SDS011;62056;52.130;5.428;2022-12-19T00:31:22;37.30;;;17.03;;
73747;SDS011;62056;52.130;5.428;2022-12-19T00:33:50;29.15;;;13.65;;
73747;SDS011;62056;52.130;5.428;2022-12-19T00:36:21;31.50;;;14.75;;
73747;SDS011;62056;52.130;5.428;2022-12-19T00:38:50;25.60;;;12.32;;
73747;SDS011;62056;52.130;5.428;2022-12-19T00:41:20;33.20;;;17.38;;
73747;SDS011;62056;52.130;5.428;2022-12-19T00:43:50;34.13;;;15.70;;
73747;SDS011;62056;52.130;5.428;2022-12-19T00:46:22;27.77;;;15.60;;
73747;SDS011;62056;52.130;5.428;2022-12-19T00:48:49;26.63;;;13.23;;
73747;SDS011;62056;52.130;5.428;2022-12-19T00:51:18;29.20;;;13.95;;
73747;SDS011;62056;52.130;5.428;2022-12-19T00:53:47;29.05;;;14.73;;
73747;SDS011;62056;52.130;5.428;2022-12-19T00:56:17;20.13;;;12.17;;
73747;SDS011;62056;52.130;5.428;2022-12-19T00:58:45;22.73;;;11.82;;
73747;SDS011;62056;52.130;5.428;2022-12-19T01:01:14;20.30;;;12.40;;
73747;SDS011;62056;52.130;5.428;2022-12-19T01:03:43;14.23;;;7.43;;
73747;SDS011;62056;52.130;5.428;2022-12-19T01:06:30;19.73;;;11.43;;
73747;SDS011;62056;52.130;5.428;2022-12-19T01:08:56;23.63;;;12.27;;
73747;SDS011;62056;52.130;5.428;2022-12-19T01:11:23;14.93;;;8.43;;
73747;SDS011;62056;52.130;5.428;2022-12-19T01:14:09;19.90;;;10.45;;
73747;SDS011;62056;52.130;5.428;2022-12-19T01:16:44;18.08;;;11.25;;
73747;SDS011;62056;52.130;5.428;2022-12-19T01:19:11;17.40;;;9.98;;
73747;SDS011;62056;52.130;5.428;2022-12-19T01:21:37;20.77;;;11.77;;
73747;SDS011;62056;52.130;5.428;2022-12-19T01:24:04;25.33;;;11.98;;
73747;SDS011;62056;52.130;5.428;2022-12-19T01:26:31;25.45;;;11.93;;
73747;SDS011;62056;52.130;5.428;2022-12-19T01:28:58;20.35;;;10.85;;
73747;SDS011;62056;52.130;5.428;2022-12-19T01:31:25;20.85;;;10.63;;
73747;SDS011;62056;52.130;5.428;2022-12-19T01:33:51;16.47;;;10.50;;
73747;SDS011;62056;52.130;5.428;2022-12-19T01:36:19;18.77;;;11.65;;
73747;SDS011;62056;52.130;5.428;2022-12-19T01:38:46;19.98;;;10.43;;
73747;SDS011;62056;52.130;5.428;2022-12-19T01:41:13;14.98;;;9.23;;
73747;SDS011;62056;52.130;5.428;2022-12-19T01:43:57;23.42;;;13.27;;
73747;SDS011;62056;52.130;5.428;2022-12-19T01:46:26;21.40;;;12.77;;
73747;SDS011;62056;52.130;5.428;2022-12-19T01:48:59;24.08;;;11.38;;
73747;SDS011;62056;52.130;5.428;2022-12-19T01:51:28;26.65;;;14.88;;
73747;SDS011;62056;52.130;5.428;2022-12-19T01:54:05;39.63;;;19.70;;
73747;SDS011;62056;52.130;5.428;2022-12-19T01:56:37;21.08;;;11.30;;
73747;SDS011;62056;52.130;5.428;2022-12-19T01:59:08;69.93;;;34.27;;
73747;SDS011;62056;52.130;5.428;2022-12-19T02:01:39;36.53;;;18.00;;
73747;SDS011;62056;52.130;5.428;2022-12-19T02:04:22;38.35;;;19.67;;
73747;SDS011;62056;52.130;5.428;2022-12-19T02:06:57;38.90;;;20.08;;
73747;SDS011;62056;52.130;5.428;2022-12-19T02:09:42;29.13;;;14.40;;
73747;SDS011;62056;52.130;5.428;2022-12-19T02:12:25;30.20;;;16.23;;
73747;SDS011;62056;52.130;5.428;2022-12-19T02:14:54;25.67;;;13.20;;
73747;SDS011;62056;52.130;5.428;2022-12-19T02:26:19;28.20;;;14.07;;
73747;SDS011;62056;52.130;5.428;2022-12-19T02:31:42;25.52;;;11.95;;
73747;SDS011;62056;52.130;5.428;2022-12-19T02:37:07;20.25;;;9.10;;
73747;SDS011;62056;52.130;5.428;2022-12-19T02:39:46;25.60;;;13.50;;
73747;SDS011;62056;52.130;5.428;2022-12-19T02:42:22;16.90;;;10.63;;
73747;SDS011;62056;52.130;5.428;2022-12-19T02:44:57;24.65;;;11.35;;
73747;SDS011;62056;52.130;5.428;2022-12-19T02:47:26;17.35;;;8.52;;
73747;SDS011;62056;52.130;5.428;2022-12-19T02:49:55;23.90;;;12.90;;
73747;SDS011;62056;52.130;5.428;2022-12-19T02:54:49;20.00;;;9.68;;
73747;SDS011;62056;52.130;5.428;2022-12-19T03:00:09;30.35;;;11.98;;
73747;SDS011;62056;52.130;5.428;2022-12-19T03:05:30;23.57;;;10.30;;
73747;SDS011;62056;52.130;5.428;2022-12-19T03:10:37;26.17;;;12.35;;
73747;SDS011;62056;52.130;5.428;2022-12-19T03:15:45;40.00;;;18.17;;
73747;SDS011;62056;52.130;5.428;2022-12-19T03:18:13;44.80;;;17.50;;
73747;SDS011;62056;52.130;5.428;2022-12-19T03:23:28;26.60;;;13.38;;
73747;SDS011;62056;52.130;5.428;2022-12-19T03:26:00;29.27;;;14.55;;
73747;SDS011;62056;52.130;5.428;2022-12-19T03:28:49;30.65;;;14.65;;
73747;SDS011;62056;52.130;5.428;2022-12-19T03:31:20;23.27;;;10.13;;
73747;SDS011;62056;52.130;5.428;2022-12-19T03:33:55;22.55;;;11.57;;
73747;SDS011;62056;52.130;5.428;2022-12-19T03:36:26;24.08;;;12.60;;
73747;SDS011;62056;52.130;5.428;2022-12-19T03:38:59;22.17;;;11.20;;
73747;SDS011;62056;52.130;5.428;2022-12-19T03:41:29;21.58;;;11.20;;
73747;SDS011;62056;52.130;5.428;2022-12-19T03:44:15;22.47;;;12.80;;
73747;SDS011;62056;52.130;5.428;2022-12-19T03:46:45;12.93;;;7.30;;
73747;SDS011;62056;52.130;5.428;2022-12-19T03:49:19;26.98;;;15.35;;
73747;SDS011;62056;52.130;5.428;2022-12-19T03:54:31;13.60;;;6.85;;
73747;SDS011;62056;52.130;5.428;2022-12-19T03:57:15;18.70;;;10.57;;
73747;SDS011;62056;52.130;5.428;2022-12-19T03:59:54;22.58;;;12.32;;
73747;SDS011;62056;52.130;5.428;2022-12-19T04:02:25;22.45;;;12.30;;
73747;SDS011;62056;52.130;5.428;2022-12-19T04:04:53;18.52;;;10.07;;
73747;SDS011;62056;52.130;5.428;2022-12-19T04:07:24;24.65;;;13.43;;
73747;SDS011;62056;52.130;5.428;2022-12-19T04:09:51;16.57;;;8.07;;
73747;SDS011;62056;52.130;5.428;2022-12-19T04:12:21;21.10;;;12.88;;
73747;SDS011;62056;52.130;5.428;2022-12-19T04:14:55;12.77;;;7.38;;
73747;SDS011;62056;52.130;5.428;2022-12-19T04:20:13;17.27;;;8.50;;
73747;SDS011;62056;52.130;5.428;2022-12-19T04:22:50;12.53;;;8.23;;
73747;SDS011;62056;52.130;5.428;2022-12-19T04:25:23;15.20;;;7.13;;
73747;SDS011;62056;52.130;5.428;2022-12-19T04:27:56;15.52;;;8.20;;
73747;SDS011;62056;52.130;5.428;2022-12-19T04:30:27;8.73;;;5.93;;
73747;SDS011;62056;52.130;5.428;2022-12-19T04:33:01;12.98;;;7.75;;
73747;SDS011;62056;52.130;5.428;2022-12-19T04:35:28;7.63;;;5.37;;
73747;SDS011;62056;52.130;5.428;2022-12-19T04:37:54;16.70;;;9.27;;
73747;SDS011;62056;52.130;5.428;2022-12-19T04:40:21;17.60;;;9.00;;
73747;SDS011;62056;52.130;5.428;2022-12-19T04:42:47;14.30;;;8.48;;
73747;SDS011;62056;52.130;5.428;2022-12-19T04:45:14;9.00;;;5.75;;
73747;SDS011;62056;52.130;5.428;2022-12-19T04:47:41;7.07;;;5.20;;
73747;SDS011;62056;52.130;5.428;2022-12-19T04:50:08;10.05;;;6.38;;
73747;SDS011;62056;52.130;5.428;2022-12-19T04:52:35;9.30;;;7.35;;
73747;SDS011;62056;52.130;5.428;2022-12-19T04:55:02;13.10;;;8.50;;
73747;SDS011;62056;52.130;5.428;2022-12-19T04:57:29;11.27;;;6.20;;
73747;SDS011;62056;52.130;5.428;2022-12-19T04:59:56;13.77;;;9.53;;
73747;SDS011;62056;52.130;5.428;2022-12-19T05:02:24;14.80;;;8.48;;
73747;SDS011;62056;52.130;5.428;2022-12-19T05:04:50;13.00;;;7.47;;
73747;SDS011;62056;52.130;5.428;2022-12-19T05:07:17;11.15;;;8.07;;
73747;SDS011;62056;52.130;5.428;2022-12-19T05:09:45;12.55;;;6.97;;
73747;SDS011;62056;52.130;5.428;2022-12-19T05:12:12;10.60;;;6.93;;
73747;SDS011;62056;52.130;5.428;2022-12-19T05:14:38;3.90;;;3.42;;
73747;SDS011;62056;52.130;5.428;2022-12-19T05:17:05;12.95;;;8.00;;
73747;SDS011;62056;52.130;5.428;2022-12-19T05:19:31;14.32;;;8.80;;
73747;SDS011;62056;52.130;5.428;2022-12-19T05:21:58;11.57;;;7.20;;
73747;SDS011;62056;52.130;5.428;2022-12-19T05:24:25;10.30;;;7.00;;
73747;SDS011;62056;52.130;5.428;2022-12-19T05:26:51;11.13;;;8.32;;
73747;SDS011;62056;52.130;5.428;2022-12-19T05:29:18;13.48;;;9.25;;
73747;SDS011;62056;52.130;5.428;2022-12-19T05:31:45;9.93;;;5.78;;
73747;SDS011;62056;52.130;5.428;2022-12-19T05:34:11;9.55;;;6.85;;
73747;SDS011;62056;52.130;5.428;2022-12-19T05:36:38;11.97;;;7.37;;
73747;SDS011;62056;52.130;5.428;2022-12-19T05:39:05;9.38;;;6.10;;
73747;SDS011;62056;52.130;5.428;2022-12-19T05:41:32;16.98;;;9.82;;
73747;SDS011;62056;52.130;5.428;2022-12-19T05:43:58;8.77;;;6.60;;
73747;SDS011;62056;52.130;5.428;2022-12-19T05:46:25;7.22;;;5.80;;
73747;SDS011;62056;52.130;5.428;2022-12-19T05:48:52;9.70;;;6.13;;
73747;SDS011;62056;52.130;5.428;2022-12-19T05:51:20;10.77;;;7.50;;
73747;SDS011;62056;52.130;5.428;2022-12-19T05:53:46;8.65;;;5.32;;
73747;SDS011;62056;52.130;5.428;2022-12-19T05:56:15;9.30;;;6.70;;
73747;SDS011;62056;52.130;5.428;2022-12-19T05:58:45;8.27;;;7.45;;
73747;SDS011;62056;52.130;5.428;2022-12-19T06:01:14;6.13;;;4.97;;
73747;SDS011;62056;52.130;5.428;2022-12-19T06:03:46;7.78;;;5.25;;
73747;SDS011;62056;52.130;5.428;2022-12-19T06:06:15;10.13;;;7.40;;
73747;SDS011;62056;52.130;5.428;2022-12-19T06:08:44;11.85;;;6.85;;
73747;SDS011;62056;52.130;5.428;2022-12-19T06:11:11;6.47;;;5.53;;
73747;SDS011;62056;52.130;5.428;2022-12-19T06:13:39;5.70;;;5.13;;
73747;SDS011;62056;52.130;5.428;2022-12-19T06:16:07;7.15;;;5.55;;
73747;SDS011;62056;52.130;5.428;2022-12-19T06:18:36;5.93;;;3.85;;
73747;SDS011;62056;52.130;5.428;2022-12-19T06:21:10;5.53;;;4.55;;
73747;SDS011;62056;52.130;5.428;2022-12-19T06:23:40;5.07;;;4.40;;
73747;SDS011;62056;52.130;5.428;2022-12-19T06:26:07;6.13;;;3.83;;
73747;SDS011;62056;52.130;5.428;2022-12-19T06:28:43;4.50;;;4.07;;
73747;SDS011;62056;52.130;5.428;2022-12-19T06:31:10;4.75;;;3.40;;
73747;SDS011;62056;52.130;5.428;2022-12-19T06:33:38;5.70;;;4.07;;
73747;SDS011;62056;52.130;5.428;2022-12-19T06:36:06;5.53;;;3.28;;
73747;SDS011;62056;52.130;5.428;2022-12-19T06:38:35;3.47;;;2.23;;
73747;SDS011;62056;52.130;5.428;2022-12-19T06:41:02;3.78;;;3.20;;
73747;SDS011;62056;52.130;5.428;2022-12-19T06:43:48;3.08;;;2.25;;
73747;SDS011;62056;52.130;5.428;2022-12-19T06:46:18;4.88;;;4.32;;
73747;SDS011;62056;52.130;5.428;2022-12-19T06:48:45;4.47;;;3.33;;
73747;SDS011;62056;52.130;5.428;2022-12-19T06:51:12;4.27;;;3.37;;
73747;SDS011;62056;52.130;5.428;2022-12-19T06:53:39;4.60;;;4.18;;
73747;SDS011;62056;52.130;5.428;2022-12-19T06:56:05;3.72;;;3.03;;
73747;SDS011;62056;52.130;5.428;2022-12-19T06:58:33;6.70;;;4.60;;
73747;SDS011;62056;52.130;5.428;2022-12-19T07:01:00;5.32;;;3.40;;
73747;SDS011;62056;52.130;5.428;2022-12-19T07:03:31;4.40;;;3.77;;
73747;SDS011;62056;52.130;5.428;2022-12-19T07:06:02;7.70;;;5.20;;
73747;SDS011;62056;52.130;5.428;2022-12-19T07:08:30;5.43;;;4.47;;
73747;SDS011;62056;52.130;5.428;2022-12-19T07:10:57;5.97;;;4.40;;
73747;SDS011;62056;52.130;5.428;2022-12-19T07:13:24;5.35;;;3.80;;
73747;SDS011;62056;52.130;5.428;2022-12-19T07:15:52;4.07;;;3.40;;
73747;SDS011;62056;52.130;5.428;2022-12-19T07:18:22;4.88;;;4.30;;
73747;SDS011;62056;52.130;5.428;2022-12-19T07:20:49;5.07;;;4.57;;
73747;SDS011;62056;52.130;5.428;2022-12-19T07:23:17;6.40;;;5.63;;
73747;SDS011;62056;52.130;5.428;2022-12-19T07:25:46;6.18;;;4.22;;
73747;SDS011;62056;52.130;5.428;2022-12-19T07:28:12;7.93;;;5.50;;
73747;SDS011;62056;52.130;5.428;2022-12-19T07:30:40;5.47;;;4.53;;
73747;SDS011;62056;52.130;5.428;2022-12-19T07:33:07;5.00;;;4.25;;
73747;SDS011;62056;52.130;5.428;2022-12-19T07:35:37;9.00;;;6.50;;
73747;SDS011;62056;52.130;5.428;2022-12-19T07:38:04;5.78;;;4.00;;
73747;SDS011;62056;52.130;5.428;2022-12-19T07:40:32;5.27;;;4.50;;
73747;SDS011;62056;52.130;5.428;2022-12-19T07:43:01;7.28;;;5.65;;
73747;SDS011;62056;52.130;5.428;2022-12-19T07:45:29;3.45;;;3.00;;
73747;SDS011;62056;52.130;5.428;2022-12-19T07:48:03;6.50;;;3.83;;
73747;SDS011;62056;52.130;5.428;2022-12-19T07:50:30;6.60;;;4.80;;
73747;SDS011;62056;52.130;5.428;2022-12-19T07:52:57;2.07;;;1.87;;
73747;SDS011;62056;52.130;5.428;2022-12-19T07:55:24;6.28;;;4.57;;
73747;SDS011;62056;52.130;5.428;2022-12-19T07:57:52;4.00;;;3.60;;
73747;SDS011;62056;52.130;5.428;2022-12-19T08:00:21;4.65;;;3.80;;
73747;SDS011;62056;52.130;5.428;2022-12-19T08:02:47;5.07;;;3.05;;
73747;SDS011;62056;52.130;5.428;2022-12-19T08:05:16;3.27;;;2.73;;
73747;SDS011;62056;52.130;5.428;2022-12-19T08:07:43;5.82;;;3.90;;
73747;SDS011;62056;52.130;5.428;2022-12-19T08:10:09;5.75;;;3.65;;
73747;SDS011;62056;52.130;5.428;2022-12-19T08:12:37;5.05;;;4.00;;
73747;SDS011;62056;52.130;5.428;2022-12-19T08:15:04;4.90;;;4.13;;
73747;SDS011;62056;52.130;5.428;2022-12-19T08:17:33;4.43;;;3.63;;
73747;SDS011;62056;52.130;5.428;2022-12-19T08:20:00;3.50;;;3.17;;
73747;SDS011;62056;52.130;5.428;2022-12-19T08:22:28;4.10;;;2.42;;
73747;SDS011;62056;52.130;5.428;2022-12-19T08:24:55;4.72;;;3.30;;
73747;SDS011;62056;52.130;5.428;2022-12-19T08:27:22;4.63;;;4.10;;
73747;SDS011;62056;52.130;5.428;2022-12-19T08:29:49;4.33;;;2.80;;
73747;SDS011;62056;52.130;5.428;2022-12-19T08:32:17;2.35;;;1.90;;
73747;SDS011;62056;52.130;5.428;2022-12-19T08:34:46;3.03;;;2.47;;
73747;SDS011;62056;52.130;5.428;2022-12-19T08:37:14;2.50;;;2.20;;
73747;SDS011;62056;52.130;5.428;2022-12-19T08:39:41;4.50;;;3.65;;
73747;SDS011;62056;52.130;5.428;2022-12-19T08:42:07;6.97;;;3.77;;
73747;SDS011;62056;52.130;5.428;2022-12-19T08:44:34;4.40;;;3.97;;
73747;SDS011;62056;52.130;5.428;2022-12-19T08:47:00;3.78;;;3.30;;
73747;SDS011;62056;52.130;5.428;2022-12-19T08:49:27;3.80;;;3.40;;
73747;SDS011;62056;52.130;5.428;2022-12-19T08:51:54;3.90;;;3.38;;
73747;SDS011;62056;52.130;5.428;2022-12-19T08:54:21;4.47;;;3.00;;
73747;SDS011;62056;52.130;5.428;2022-12-19T08:56:47;3.15;;;2.72;;
73747;SDS011;62056;52.130;5.428;2022-12-19T08:59:14;4.93;;;3.85;;
73747;SDS011;62056;52.130;5.428;2022-12-19T09:01:57;5.70;;;4.40;;
73747;SDS011;62056;52.130;5.428;2022-12-19T09:04:27;8.00;;;6.68;;
73747;SDS011;62056;52.130;5.428;2022-12-19T09:07:15;8.27;;;4.23;;
73747;SDS011;62056;52.130;5.428;2022-12-19T09:09:42;5.45;;;4.28;;
73747;SDS011;62056;52.130;5.428;2022-12-19T09:12:11;5.30;;;3.22;;
73747;SDS011;62056;52.130;5.428;2022-12-19T09:14:38;5.55;;;3.70;;
73747;SDS011;62056;52.130;5.428;2022-12-19T09:17:05;4.65;;;3.90;;
73747;SDS011;62056;52.130;5.428;2022-12-19T09:19:32;3.33;;;2.57;;
73747;SDS011;62056;52.130;5.428;2022-12-19T09:21:59;2.78;;;1.88;;
73747;SDS011;62056;52.130;5.428;2022-12-19T09:24:26;3.67;;;3.38;;
73747;SDS011;62056;52.130;5.428;2022-12-19T09:26:52;2.97;;;2.70;;
73747;SDS011;62056;52.130;5.428;2022-12-19T09:29:19;6.93;;;3.90;;
73747;SDS011;62056;52.130;5.428;2022-12-19T09:31:47;2.87;;;2.30;;
73747;SDS011;62056;52.130;5.428;2022-12-19T09:34:22;4.50;;;3.80;;
73747;SDS011;62056;52.130;5.428;2022-12-19T09:37:03;3.13;;;2.60;;
73747;SDS011;62056;52.130;5.428;2022-12-19T09:39:31;3.35;;;2.60;;
73747;SDS011;62056;52.130;5.428;2022-12-19T09:42:04;5.38;;;2.70;;
73747;SDS011;62056;52.130;5.428;2022-12-19T09:44:44;7.97;;;2.63;;
73747;SDS011;62056;52.130;5.428;2022-12-19T09:47:22;4.43;;;3.22;;
73747;SDS011;62056;52.130;5.428;2022-12-19T09:49:52;4.32;;;3.55;;
73747;SDS011;62056;52.130;5.428;2022-12-19T09:52:32;4.75;;;3.42;;
73747;SDS011;62056;52.130;5.428;2022-12-19T10:01:15;3.25;;;2.60;;
73747;SDS011;62056;52.130;5.428;2022-12-19T10:03:49;3.67;;;2.28;;
73747;SDS011;62056;52.130;5.428;2022-12-19T10:06:25;3.70;;;3.30;;
73747;SDS011;62056;52.130;5.428;2022-12-19T10:09:12;3.75;;;2.78;;
73747;SDS011;62056;52.130;5.428;2022-12-19T10:12:07;6.97;;;5.73;;
73747;SDS011;62056;52.130;5.428;2022-12-19T10:21:08;4.22;;;3.63;;
73747;SDS011;62056;52.130;5.428;2022-12-19T10:24:02;3.50;;;2.20;;
73747;SDS011;62056;52.130;5.428;2022-12-19T10:26:45;4.37;;;2.97;;
73747;SDS011;62056;52.130;5.428;2022-12-19T10:32:02;4.22;;;3.40;;
73747;SDS011;62056;52.130;5.428;2022-12-19T10:34:41;2.78;;;2.40;;
73747;SDS011;62056;52.130;5.428;2022-12-19T10:37:13;3.42;;;2.00;;
73747;SDS011;62056;52.130;5.428;2022-12-19T10:43:02;4.30;;;3.22;;
73747;SDS011;62056;52.130;5.428;2022-12-19T10:45:45;2.15;;;1.63;;
73747;SDS011;62056;52.130;5.428;2022-12-19T10:48:19;3.83;;;1.95;;
73747;SDS011;62056;52.130;5.428;2022-12-19T10:50:56;3.60;;;2.35;;
73747;SDS011;62056;52.130;5.428;2022-12-19T10:53:31;3.33;;;2.40;;
73747;SDS011;62056;52.130;5.428;2022-12-19T10:56:02;1.98;;;1.77;;
73747;SDS011;62056;52.130;5.428;2022-12-19T10:58:40;2.47;;;2.17;;
73747;SDS011;62056;52.130;5.428;2022-12-19T11:01:14;5.25;;;1.77;;
73747;SDS011;62056;52.130;5.428;2022-12-19T11:06:39;3.27;;;1.87;;
73747;SDS011;62056;52.130;5.428;2022-12-19T11:09:15;2.53;;;2.28;;
73747;SDS011;62056;52.130;5.428;2022-12-19T11:11:47;3.28;;;2.88;;
73747;SDS011;62056;52.130;5.428;2022-12-19T11:14:42;1.85;;;1.65;;
73747;SDS011;62056;52.130;5.428;2022-12-19T11:17:35;3.10;;;1.88;;
73747;SDS011;62056;52.130;5.428;2022-12-19T11:20:23;3.13;;;2.27;;
73747;SDS011;62056;52.130;5.428;2022-12-19T11:23:11;2.83;;;2.40;;
73747;SDS011;62056;52.130;5.428;2022-12-19T11:26:02;2.60;;;2.33;;
73747;SDS011;62056;52.130;5.428;2022-12-19T11:28:50;3.15;;;2.63;;
73747;SDS011;62056;52.130;5.428;2022-12-19T11:31:37;4.43;;;2.03;;
73747;SDS011;62056;52.130;5.428;2022-12-19T11:34:25;5.03;;;2.70;;
73747;SDS011;62056;52.130;5.428;2022-12-19T11:45:04;4.30;;;2.33;;
73747;SDS011;62056;52.130;5.428;2022-12-19T11:47:52;3.40;;;2.00;;
73747;SDS011;62056;52.130;5.428;2022-12-19T11:50:25;3.97;;;2.40;;
73747;SDS011;62056;52.130;5.428;2022-12-19T11:53:01;3.05;;;1.70;;
73747;SDS011;62056;52.130;5.428;2022-12-19T11:55:55;3.10;;;2.30;;
73747;SDS011;62056;52.130;5.428;2022-12-19T11:58:27;4.13;;;1.80;;
73747;SDS011;62056;52.130;5.428;2022-12-19T12:06:30;3.13;;;2.40;;
73747;SDS011;62056;52.130;5.428;2022-12-19T12:09:02;4.97;;;1.90;;
73747;SDS011;62056;52.130;5.428;2022-12-19T12:12:01;2.30;;;1.30;;
73747;SDS011;62056;52.130;5.428;2022-12-19T12:15:16;2.53;;;1.90;;
73747;SDS011;62056;52.130;5.428;2022-12-19T12:18:36;7.72;;;1.90;;
73747;SDS011;62056;52.130;5.428;2022-12-19T12:21:38;2.45;;;2.25;;
73747;SDS011;62056;52.130;5.428;2022-12-19T12:40:16;2.78;;;1.70;;
73747;SDS011;62056;52.130;5.428;2022-12-19T12:43:05;5.95;;;2.33;;
73747;SDS011;62056;52.130;5.428;2022-12-19T12:45:47;2.30;;;2.10;;
73747;SDS011;62056;52.130;5.428;2022-12-19T12:50:49;2.30;;;1.20;;
73747;SDS011;62056;52.130;5.428;2022-12-19T12:53:22;3.00;;;1.90;;
73747;SDS011;62056;52.130;5.428;2022-12-19T12:55:54;3.08;;;2.10;;
73747;SDS011;62056;52.130;5.428;2022-12-19T13:03:57;2.20;;;1.85;;
73747;SDS011;62056;52.130;5.428;2022-12-19T13:06:35;3.75;;;1.92;;
73747;SDS011;62056;52.130;5.428;2022-12-19T13:11:38;2.23;;;1.87;;
73747;SDS011;62056;52.130;5.428;2022-12-19T13:17:03;3.53;;;1.27;;
73747;SDS011;62056;52.130;5.428;2022-12-19T13:19:37;2.85;;;1.88;;
73747;SDS011;62056;52.130;5.428;2022-12-19T13:32:26;7.32;;;2.47;;
73747;SDS011;62056;52.130;5.428;2022-12-19T13:35:01;4.13;;;1.90;;
73747;SDS011;62056;52.130;5.428;2022-12-19T13:41:23;3.90;;;1.80;;
73747;SDS011;62056;52.130;5.428;2022-12-19T13:44:23;2.08;;;1.83;;
73747;SDS011;62056;52.130;5.428;2022-12-19T13:46:50;2.78;;;1.70;;
73747;SDS011;62056;52.130;5.428;2022-12-19T13:49:30;5.03;;;2.25;;
73747;SDS011;62056;52.130;5.428;2022-12-19T13:52:00;3.70;;;1.90;;
73747;SDS011;62056;52.130;5.428;2022-12-19T13:54:32;6.53;;;2.65;;
73747;SDS011;62056;52.130;5.428;2022-12-19T13:57:14;3.30;;;2.42;;
73747;SDS011;62056;52.130;5.428;2022-12-19T13:59:48;5.07;;;2.33;;
73747;SDS011;62056;52.130;5.428;2022-12-19T14:02:27;3.05;;;1.95;;
73747;SDS011;62056;52.130;5.428;2022-12-19T14:04:57;2.53;;;1.90;;
73747;SDS011;62056;52.130;5.428;2022-12-19T14:07:26;2.88;;;1.83;;
73747;SDS011;62056;52.130;5.428;2022-12-19T14:10:06;2.45;;;2.00;;
73747;SDS011;62056;52.130;5.428;2022-12-19T14:13:02;1.98;;;1.35;;
73747;SDS011;62056;52.130;5.428;2022-12-19T14:16:14;2.53;;;1.70;;
73747;SDS011;62056;52.130;5.428;2022-12-19T14:18:46;1.93;;;1.33;;
73747;SDS011;62056;52.130;5.428;2022-12-19T14:21:16;3.03;;;1.98;;
73747;SDS011;62056;52.130;5.428;2022-12-19T14:24:10;2.75;;;1.95;;
73747;SDS011;62056;52.130;5.428;2022-12-19T14:26:46;2.40;;;1.45;;
73747;SDS011;62056;52.130;5.428;2022-12-19T14:29:40;4.57;;;2.65;;
73747;SDS011;62056;52.130;5.428;2022-12-19T14:32:33;4.67;;;2.07;;
73747;SDS011;62056;52.130;5.428;2022-12-19T14:35:23;2.38;;;1.67;;
73747;SDS011;62056;52.130;5.428;2022-12-19T14:38:15;5.78;;;2.22;;
73747;SDS011;62056;52.130;5.428;2022-12-19T14:41:05;2.53;;;1.85;;
73747;SDS011;62056;52.130;5.428;2022-12-19T14:43:55;3.63;;;2.10;;
73747;SDS011;62056;52.130;5.428;2022-12-19T14:46:41;2.40;;;1.50;;
73747;SDS011;62056;52.130;5.428;2022-12-19T14:49:31;2.78;;;1.80;;
73747;SDS011;62056;52.130;5.428;2022-12-19T14:52:38;4.18;;;1.50;;
73747;SDS011;62056;52.130;5.428;2022-12-19T14:55:32;2.50;;;1.83;;
73747;SDS011;62056;52.130;5.428;2022-12-19T14:58:30;3.95;;;2.00;;
73747;SDS011;62056;52.130;5.428;2022-12-19T15:01:23;3.03;;;1.43;;
73747;SDS011;62056;52.130;5.428;2022-12-19T15:04:02;3.08;;;1.95;;
73747;SDS011;62056;52.130;5.428;2022-12-19T15:06:52;2.53;;;1.45;;
73747;SDS011;62056;52.130;5.428;2022-12-19T15:09:41;1.52;;;1.25;;
73747;SDS011;62056;52.130;5.428;2022-12-19T15:16:21;3.33;;;1.50;;
73747;SDS011;62056;52.130;5.428;2022-12-19T15:18:58;2.20;;;1.38;;
73747;SDS011;62056;52.130;5.428;2022-12-19T15:21:27;4.93;;;2.05;;
73747;SDS011;62056;52.130;5.428;2022-12-19T15:23:55;2.63;;;1.77;;
73747;SDS011;62056;52.130;5.428;2022-12-19T15:26:26;2.15;;;1.65;;
73747;SDS011;62056;52.130;5.428;2022-12-19T15:28:59;2.20;;;1.53;;
73747;SDS011;62056;52.130;5.428;2022-12-19T15:33:54;2.00;;;1.58;;
73747;SDS011;62056;52.130;5.428;2022-12-19T15:36:41;2.03;;;1.50;;
73747;SDS011;62056;52.130;5.428;2022-12-19T15:39:07;3.97;;;1.98;;
73747;SDS011;62056;52.130;5.428;2022-12-19T15:41:34;4.30;;;1.90;;
73747;SDS011;62056;52.130;5.428;2022-12-19T15:44:06;7.22;;;1.77;;
73747;SDS011;62056;52.130;5.428;2022-12-19T15:46:35;4.20;;;2.08;;
73747;SDS011;62056;52.130;5.428;2022-12-19T15:49:15;2.88;;;2.00;;
73747;SDS011;62056;52.130;5.428;2022-12-19T15:51:43;5.65;;;2.13;;
73747;SDS011;62056;52.130;5.428;2022-12-19T15:54:11;4.70;;;1.67;;
73747;SDS011;62056;52.130;5.428;2022-12-19T15:56:57;2.45;;;1.88;;
73747;SDS011;62056;52.130;5.428;2022-12-19T15:59:29;4.63;;;2.10;;
73747;SDS011;62056;52.130;5.428;2022-12-19T16:02:10;2.78;;;1.48;;
73747;SDS011;62056;52.130;5.428;2022-12-19T16:04:41;2.30;;;1.50;;
73747;SDS011;62056;52.130;5.428;2022-12-19T16:07:14;4.67;;;1.80;;
73747;SDS011;62056;52.130;5.428;2022-12-19T16:09:42;3.92;;;1.88;;
73747;SDS011;62056;52.130;5.428;2022-12-19T16:12:16;2.70;;;1.70;;
73747;SDS011;62056;52.130;5.428;2022-12-19T16:14:47;2.63;;;1.30;;
73747;SDS011;62056;52.130;5.428;2022-12-19T16:17:20;3.50;;;2.15;;
73747;SDS011;62056;52.130;5.428;2022-12-19T16:19:48;2.30;;;1.90;;
73747;SDS011;62056;52.130;5.428;2022-12-19T16:22:18;3.00;;;1.50;;
73747;SDS011;62056;52.130;5.428;2022-12-19T16:24:46;6.03;;;1.90;;
73747;SDS011;62056;52.130;5.428;2022-12-19T16:27:18;3.17;;;2.28;;
73747;SDS011;62056;52.130;5.428;2022-12-19T16:29:53;3.53;;;1.85;;
73747;SDS011;62056;52.130;5.428;2022-12-19T16:32:21;4.93;;;1.90;;
73747;SDS011;62056;52.130;5.428;2022-12-19T16:34:50;3.42;;;2.40;;
73747;SDS011;62056;52.130;5.428;2022-12-19T16:37:17;3.42;;;1.48;;
73747;SDS011;62056;52.130;5.428;2022-12-19T16:39:44;2.30;;;1.95;;
73747;SDS011;62056;52.130;5.428;2022-12-19T16:42:14;2.45;;;2.03;;
73747;SDS011;62056;52.130;5.428;2022-12-19T16:44:42;2.60;;;1.83;;
73747;SDS011;62056;52.130;5.428;2022-12-19T16:47:11;2.95;;;1.80;;
73747;SDS011;62056;52.130;5.428;2022-12-19T16:49:42;4.38;;;2.47;;
73747;SDS011;62056;52.130;5.428;2022-12-19T16:52:10;2.92;;;1.98;;
73747;SDS011;62056;52.130;5.428;2022-12-19T16:54:37;3.60;;;2.03;;
73747;SDS011;62056;52.130;5.428;2022-12-19T16:57:03;4.10;;;1.77;;
73747;SDS011;62056;52.130;5.428;2022-12-19T16:59:34;3.42;;;2.13;;
73747;SDS011;62056;52.130;5.428;2022-12-19T17:05:04;2.78;;;2.17;;
73747;SDS011;62056;52.130;5.428;2022-12-19T17:07:33;2.40;;;1.60;;
73747;SDS011;62056;52.130;5.428;2022-12-19T17:10:00;6.00;;;1.73;;
73747;SDS011;62056;52.130;5.428;2022-12-19T17:12:27;7.28;;;1.88;;
73747;SDS011;62056;52.130;5.428;2022-12-19T17:14:54;5.78;;;2.17;;
73747;SDS011;62056;52.130;5.428;2022-12-19T17:17:20;3.58;;;1.48;;
73747;SDS011;62056;52.130;5.428;2022-12-19T17:19:47;2.83;;;2.53;;